F/V J. Louis Vincent — FQBL — position and weather

sailwx.info

Track history (hours):
 
Tides and Currents Weather Stations Pressure Air Temp Water Temp Dewpoint Dewpoint Depression Visibility Wind Speed Wind Dir Waves Ship Positions

F/V J. Louis Vincent

Last reported at 2014-Oct-24 13:11 UTC. Time now 2014-Oct-24 23:13 UTC.
Position N 43°13' E 003°47'.

Length 29 m.

Type: Fishing. MMSI: 227146600.

Date/timePositionNaut miles runAvg speedWind from/ knotsBaromVisibWave heightAir tempDewpointWater temp
2014-Oct-24 13:11N 43°13' E 003°47'2 3.8
2014-Oct-24 12:33N 43°11' E 003°47'6 4.4
2014-Oct-24 11:14N 43°05' E 003°49'4 3.3
2014-Oct-24 10:04N 43°01' E 003°52'3 4.5
2014-Oct-24 09:20N 43°00' E 003°56'4 4.6
2014-Oct-24 08:26N 42°59' E 004°02'29 1.7
2014-Oct-23 15:06N 43°24' E 003°42'0 0.4
2014-Oct-23 14:08N 43°24' E 003°42'1 0.9
2014-Oct-23 13:33N 43°23' E 003°42'8 7.0
2014-Oct-23 12:24N 43°16' E 003°47'4 4.3
2014-Oct-23 11:33N 43°14' E 003°50'4 4.5
2014-Oct-23 10:33N 43°11' E 003°55'4 3.2
2014-Oct-23 09:23N 43°10' E 004°00'9 4.8
2014-Oct-23 07:30N 43°07' E 004°12'28 1.8
2014-Oct-22 16:27N 43°24' E 003°42'0 0.4
2014-Oct-22 15:30N 43°24' E 003°42'8 4.0
2014-Oct-22 13:27N 43°17' E 003°47'4 4.3
2014-Oct-22 12:33N 43°15' E 003°52'6 4.5
2014-Oct-22 11:10N 43°13' E 004°00'2 1.6
2014-Oct-22 10:08N 43°14' E 004°02'3 4.0
2014-Oct-22 09:26N 43°13' E 004°06'5 4.7
2014-Oct-22 08:25N 43°11' E 004°12'4 4.3
2014-Oct-22 07:33N 43°09' E 004°16'1 1.2
2014-Oct-22 06:25N 43°08' E 004°17'6 4.4
2014-Oct-22 05:05N 43°11' E 004°10'24 1.9
2014-Oct-21 16:27N 43°24' E 003°42'1311.4
2014-Oct-21 15:18N 43°15' E 003°55'2 3.0
2014-Oct-21 14:30N 43°15' E 003°58'5 4.9
2014-Oct-21 13:26N 43°13' E 004°05'1 1.1
2014-Oct-21 12:13N 43°14' E 004°04'15 5.4
2014-Oct-21 09:23N 43°21' E 003°45'3 0.9
2014-Oct-21 06:27N 43°22' E 003°48'  
2014-Oct-14 14:32N 43°23' E 003°42'1 1.0
2014-Oct-14 13:32N 43°24' E 003°42'  
Track history (hours):
 
Tides and Currents Weather Stations Pressure Air Temp Water Temp Dewpoint Dewpoint Depression Visibility Wind Speed Wind Dir Waves Ship Positions

F/V J. Louis Vincent

Last reported at 2014-Oct-24 13:11 UTC. Time now 2014-Oct-24 23:13 UTC.
Position N 43°13' E 003°47'.

Length 29 m.

Type: Fishing. MMSI: 227146600.

Date/timePositionNaut miles runAvg speedWind from/ knotsBaromVisibWave heightAir tempDewpointWater temp
2014-Oct-24 13:11N 43°13' E 003°47'2 3.8
2014-Oct-24 12:33N 43°11' E 003°47'6 4.4
2014-Oct-24 11:14N 43°05' E 003°49'4 3.3
2014-Oct-24 10:04N 43°01' E 003°52'3 4.5
2014-Oct-24 09:20N 43°00' E 003°56'4 4.6
2014-Oct-24 08:26N 42°59' E 004°02'29 1.7
2014-Oct-23 15:06N 43°24' E 003°42'0 0.4
2014-Oct-23 14:08N 43°24' E 003°42'1 0.9
2014-Oct-23 13:33N 43°23' E 003°42'8 7.0
2014-Oct-23 12:24N 43°16' E 003°47'4 4.3
2014-Oct-23 11:33N 43°14' E 003°50'4 4.5
2014-Oct-23 10:33N 43°11' E 003°55'4 3.2
2014-Oct-23 09:23N 43°10' E 004°00'9 4.8
2014-Oct-23 07:30N 43°07' E 004°12'28 1.8
2014-Oct-22 16:27N 43°24' E 003°42'0 0.4
2014-Oct-22 15:30N 43°24' E 003°42'8 4.0
2014-Oct-22 13:27N 43°17' E 003°47'4 4.3
2014-Oct-22 12:33N 43°15' E 003°52'6 4.5
2014-Oct-22 11:10N 43°13' E 004°00'2 1.6
2014-Oct-22 10:08N 43°14' E 004°02'3 4.0
2014-Oct-22 09:26N 43°13' E 004°06'5 4.7
2014-Oct-22 08:25N 43°11' E 004°12'4 4.3
2014-Oct-22 07:33N 43°09' E 004°16'1 1.2
2014-Oct-22 06:25N 43°08' E 004°17'6 4.4
2014-Oct-22 05:05N 43°11' E 004°10'24 1.9
2014-Oct-21 16:27N 43°24' E 003°42'1311.4
2014-Oct-21 15:18N 43°15' E 003°55'2 3.0
2014-Oct-21 14:30N 43°15' E 003°58'5 4.9
2014-Oct-21 13:26N 43°13' E 004°05'1 1.1
2014-Oct-21 12:13N 43°14' E 004°04'15 5.4
2014-Oct-21 09:23N 43°21' E 003°45'3 0.9
2014-Oct-21 06:27N 43°22' E 003°48'  
2014-Oct-14 14:32N 43°23' E 003°42'1 1.0
2014-Oct-14 13:32N 43°24' E 003°42'  

Dump ship's entire track history